Time;durP1;ratioP1;P1;durP2;ratioP2;P2;SDS_P1;SDS_P2;PMS_P1;PMS_P2;Temp;Humidity;BMP_temperature;BMP_pressure;BME280_temperature;BME280_humidity;BME280_pressure;Samples;Min_cycle;Max_cycle;Signal;HPM_P1;HPM_P2
2023/04/17 00:00:32;;;;;;;8.40;7.60;;;;;;;;;;5045773;28;20200;-73
2023/04/17 00:03:00;;;;;;;9.03;8.23;;;;;;;;;;5041261;28;20211;-73
2023/04/17 00:05:27;;;;;;;7.20;6.60;;;;;;;;;;5042186;28;20253;-73
2023/04/17 00:07:56;;;;;;;7.73;6.93;;;;;;;;;;5044575;28;20204;-73
2023/04/17 00:10:23;;;;;;;7.63;6.93;;;;;;;;;;5047997;28;20206;-72
2023/04/17 00:12:50;;;;;;;7.50;6.80;;;;;;;;;;5051419;28;20228;-73
2023/04/17 00:15:17;;;;;;;9.07;8.27;;;;;;;;;;5043257;28;20203;-72
2023/04/17 00:17:44;;;;;;;9.23;8.33;;;;;;;;;;5046821;28;20199;-72
2023/04/17 00:20:12;;;;;;;10.00;9.10;;;;;;;;;;5043608;28;20204;-72
2023/04/17 00:22:39;;;;;;;10.80;9.80;;;;;;;;;;5042505;28;20205;-72
2023/04/17 00:25:11;;;;;;;12.83;11.60;;;;;;;;;;5053110;28;20202;-72
2023/04/17 00:27:38;;;;;;;19.57;16.93;;;;;;;;;;5042554;28;20202;-72
2023/04/17 00:30:06;;;;;;;29.90;26.67;;;;;;;;;;5048455;28;20203;-73
2023/04/17 00:32:33;;;;;;;20.40;18.20;;;;;;;;;;5045968;28;20206;-73
2023/04/17 00:35:00;;;;;;;10.47;9.37;;;;;;;;;;5045617;28;20203;-72
2023/04/17 00:37:28;;;;;;;23.47;20.23;;;;;;;;;;5044972;28;20230;-72
2023/04/17 00:39:55;;;;;;;13.70;12.30;;;;;;;;;;5042787;28;20206;-72
2023/04/17 00:42:23;;;;;;;22.40;19.03;;;;;;;;;;5044283;28;20274;-72
2023/04/17 00:44:50;;;;;;;10.77;9.67;;;;;;;;;;5042265;28;20238;-72
2023/04/17 00:47:18;;;;;;;11.57;10.20;;;;;;;;;;5046147;28;20207;-73
2023/04/17 00:49:45;;;;;;;13.50;12.10;;;;;;;;;;5046316;28;20211;-73
2023/04/17 00:52:12;;;;;;;20.23;18.03;;;;;;;;;;5041622;28;20204;-72
2023/04/17 00:54:39;;;;;;;13.93;12.40;;;;;;;;;;5044921;28;20226;-72
2023/04/17 00:57:07;;;;;;;10.63;9.63;;;;;;;;;;5052686;28;20215;-73
2023/04/17 00:59:36;;;;;;;15.47;13.83;;;;;;;;;;5047401;28;20210;-73
2023/04/17 01:02:04;;;;;;;17.50;13.77;;;;;;;;;;5041899;28;20219;-65
2023/04/17 01:04:31;;;;;;;10.90;9.80;;;;;;;;;;5041972;28;20196;-64
2023/04/17 01:06:59;;;;;;;11.20;9.63;;;;;;;;;;5046731;28;20199;-64
2023/04/17 01:09:26;;;;;;;12.70;11.17;;;;;;;;;;5041590;28;20199;-64
2023/04/17 01:11:53;;;;;;;13.37;11.93;;;;;;;;;;5038890;28;20210;-64
2023/04/17 01:14:20;;;;;;;13.63;12.23;;;;;;;;;;5045183;28;20224;-64
2023/04/17 01:16:49;;;;;;;13.90;12.30;;;;;;;;;;5041600;28;20211;-64
2023/04/17 01:19:16;;;;;;;15.03;13.13;;;;;;;;;;5042865;28;20263;-64
2023/04/17 01:21:43;;;;;;;19.03;15.73;;;;;;;;;;5046495;28;20212;-64
2023/04/17 01:24:12;;;;;;;18.97;15.30;;;;;;;;;;5043829;28;20209;-64
2023/04/17 01:26:40;;;;;;;19.07;15.63;;;;;;;;;;5042822;28;20211;-64
2023/04/17 01:29:07;;;;;;;18.60;15.23;;;;;;;;;;5041945;28;20298;-64
2023/04/17 01:31:34;;;;;;;20.23;17.03;;;;;;;;;;5044819;28;20203;-64
2023/04/17 01:34:01;;;;;;;16.40;14.13;;;;;;;;;;5044240;28;20224;-64
2023/04/17 01:36:29;;;;;;;13.70;12.30;;;;;;;;;;5046185;28;20215;-64
2023/04/17 01:38:56;;;;;;;18.17;14.00;;;;;;;;;;5046807;28;20215;-64
2023/04/17 01:41:24;;;;;;;13.80;12.40;;;;;;;;;;5046047;28;20208;-64
2023/04/17 01:43:51;;;;;;;15.07;11.73;;;;;;;;;;5042732;28;20195;-64
2023/04/17 01:46:18;;;;;;;14.33;12.73;;;;;;;;;;5042839;28;20207;-65
2023/04/17 01:48:45;;;;;;;14.37;12.43;;;;;;;;;;5043632;28;20199;-65
2023/04/17 01:51:12;;;;;;;14.77;12.50;;;;;;;;;;5043074;28;20208;-64
2023/04/17 01:53:40;;;;;;;14.53;13.03;;;;;;;;;;5041692;28;20227;-64
2023/04/17 01:56:07;;;;;;;13.37;11.97;;;;;;;;;;5043540;28;20203;-65
2023/04/17 01:58:36;;;;;;;14.30;12.00;;;;;;;;;;5041516;28;20217;-64
2023/04/17 02:01:03;;;;;;;12.63;11.17;;;;;;;;;;5038625;28;20208;-64
2023/04/17 02:03:30;;;;;;;15.43;12.30;;;;;;;;;;5037629;28;20195;-64
2023/04/17 02:05:57;;;;;;;13.93;12.40;;;;;;;;;;5045715;28;20262;-64
2023/04/17 02:08:25;;;;;;;12.93;11.47;;;;;;;;;;5040869;28;20207;-64
2023/04/17 02:10:53;;;;;;;13.07;11.43;;;;;;;;;;5043483;28;20203;-65
2023/04/17 02:13:20;;;;;;;13.70;11.40;;;;;;;;;;5044475;28;20227;-64
2023/04/17 02:15:48;;;;;;;12.27;10.83;;;;;;;;;;5043235;28;20218;-65
2023/04/17 02:18:15;;;;;;;13.63;12.20;;;;;;;;;;5043913;28;20220;-64
2023/04/17 02:20:42;;;;;;;14.40;12.90;;;;;;;;;;5046311;28;20202;-64
2023/04/17 02:23:11;;;;;;;13.20;11.80;;;;;;;;;;5044468;28;20207;-64
2023/04/17 02:25:38;;;;;;;13.37;11.97;;;;;;;;;;5049868;28;20211;-64
2023/04/17 02:28:05;;;;;;;12.73;11.43;;;;;;;;;;5042634;28;20204;-64
2023/04/17 02:30:33;;;;;;;12.97;11.63;;;;;;;;;;5050235;28;20204;-64
2023/04/17 02:33:01;;;;;;;12.87;11.57;;;;;;;;;;5044306;28;20223;-65
2023/04/17 02:35:30;;;;;;;13.53;12.10;;;;;;;;;;5047360;28;20234;-64
2023/04/17 02:37:57;;;;;;;17.30;14.47;;;;;;;;;;5045981;28;20199;-64
2023/04/17 02:40:25;;;;;;;15.50;13.90;;;;;;;;;;5046870;28;20207;-64
2023/04/17 02:42:52;;;;;;;14.03;12.63;;;;;;;;;;5051495;28;20204;-73
2023/04/17 02:45:19;;;;;;;15.90;13.70;;;;;;;;;;5046723;28;20227;-73
2023/04/17 02:47:46;;;;;;;13.17;11.77;;;;;;;;;;5049006;28;20211;-73
2023/04/17 02:50:14;;;;;;;15.07;12.50;;;;;;;;;;5047165;28;20210;-72
2023/04/17 02:52:42;;;;;;;12.87;11.50;;;;;;;;;;5049989;28;20226;-73
2023/04/17 02:55:09;;;;;;;12.63;11.33;;;;;;;;;;5046891;28;20223;-72
2023/04/17 02:57:36;;;;;;;14.07;12.43;;;;;;;;;;5045915;28;20226;-72
2023/04/17 03:00:07;;;;;;;12.80;11.33;;;;;;;;;;5045072;28;20294;-72
2023/04/17 03:02:34;;;;;;;13.57;11.93;;;;;;;;;;5047757;28;20208;-72
2023/04/17 03:05:03;;;;;;;12.80;11.50;;;;;;;;;;5045543;28;20204;-73
2023/04/17 03:07:31;;;;;;;14.60;12.83;;;;;;;;;;5041299;28;20265;-72
2023/04/17 03:09:58;;;;;;;13.63;12.17;;;;;;;;;;5046612;28;20214;-72
2023/04/17 03:12:26;;;;;;;12.33;11.13;;;;;;;;;;5045854;28;20203;-72
2023/04/17 03:14:53;;;;;;;14.97;13.37;;;;;;;;;;5042651;28;20227;-72
2023/04/17 03:17:20;;;;;;;12.57;11.27;;;;;;;;;;5047131;28;20207;-73
2023/04/17 03:19:47;;;;;;;15.63;14.03;;;;;;;;;;5046369;28;20208;-73
2023/04/17 03:22:14;;;;;;;14.33;12.83;;;;;;;;;;5047991;28;20203;-73
2023/04/17 03:24:43;;;;;;;14.50;13.10;;;;;;;;;;5050347;28;20200;-73
2023/04/17 03:27:10;;;;;;;15.50;13.90;;;;;;;;;;5048376;28;20227;-72
2023/04/17 03:29:37;;;;;;;14.33;12.73;;;;;;;;;;5048036;28;20211;-72
2023/04/17 03:32:04;;;;;;;13.10;11.70;;;;;;;;;;5045823;28;20208;-73
2023/04/17 03:34:31;;;;;;;13.90;12.50;;;;;;;;;;5042750;28;20226;-73
2023/04/17 03:36:59;;;;;;;11.70;10.60;;;;;;;;;;5046095;28;20209;-73
2023/04/17 03:39:26;;;;;;;13.73;12.40;;;;;;;;;;5047989;28;20208;-73
2023/04/17 03:41:55;;;;;;;13.03;11.83;;;;;;;;;;5047315;28;20207;-72
2023/04/17 03:44:22;;;;;;;14.43;12.93;;;;;;;;;;5044109;28;20238;-71
2023/04/17 03:46:49;;;;;;;14.13;12.63;;;;;;;;;;5044718;28;20203;-73
2023/04/17 03:49:16;;;;;;;14.07;12.50;;;;;;;;;;5047007;28;20210;-73
2023/04/17 03:51:43;;;;;;;13.37;11.97;;;;;;;;;;5048472;28;20206;-72
2023/04/17 03:54:10;;;;;;;16.27;14.57;;;;;;;;;;5046782;28;20215;-73
2023/04/17 03:56:37;;;;;;;14.43;12.93;;;;;;;;;;5043324;28;20203;-72
2023/04/17 03:59:06;;;;;;;14.17;12.67;;;;;;;;;;5042430;28;20196;-72
2023/04/17 04:01:37;;;;;;;13.83;12.47;;;;;;;;;;5044799;28;20196;-72
2023/04/17 04:04:04;;;;;;;13.93;12.43;;;;;;;;;;5046553;28;20219;-72
2023/04/17 04:06:31;;;;;;;12.77;11.47;;;;;;;;;;5047344;28;20203;-73
2023/04/17 04:08:58;;;;;;;12.77;11.57;;;;;;;;;;5046028;28;20218;-72
2023/04/17 04:11:25;;;;;;;13.70;12.23;;;;;;;;;;5046825;28;20207;-72
2023/04/17 04:13:53;;;;;;;13.53;12.33;;;;;;;;;;5039492;28;20228;-72
2023/04/17 04:16:21;;;;;;;13.03;11.70;;;;;;;;;;5046111;28;20211;-73
2023/04/17 04:18:48;;;;;;;12.77;11.50;;;;;;;;;;5044312;28;20200;-72
2023/04/17 04:21:15;;;;;;;12.83;11.37;;;;;;;;;;5046054;28;20223;-72
2023/04/17 04:23:44;;;;;;;12.20;11.00;;;;;;;;;;5045153;28;20230;-73
2023/04/17 04:26:11;;;;;;;13.23;11.83;;;;;;;;;;5040035;28;20202;-72
2023/04/17 04:28:38;;;;;;;13.60;12.20;;;;;;;;;;5042994;28;20204;-72
2023/04/17 04:31:05;;;;;;;12.43;11.23;;;;;;;;;;5042630;28;20206;-72
2023/04/17 04:33:34;;;;;;;12.93;11.63;;;;;;;;;;5048420;28;20207;-72
2023/04/17 04:36:01;;;;;;;14.07;12.67;;;;;;;;;;5041041;28;20258;-72
2023/04/17 04:38:31;;;;;;;13.43;12.13;;;;;;;;;;5046870;28;20199;-72
2023/04/17 04:41:04;;;;;;;12.77;11.47;;;;;;;;;;5042925;28;20207;-72
2023/04/17 04:43:32;;;;;;;13.50;12.10;;;;;;;;;;5041029;28;20195;-72
2023/04/17 04:45:59;;;;;;;13.60;12.30;;;;;;;;;;5039371;28;20228;-71
2023/04/17 04:48:27;;;;;;;13.03;11.63;;;;;;;;;;5042202;28;20290;-72
2023/04/17 04:50:56;;;;;;;13.40;12.10;;;;;;;;;;5050048;28;20205;-72
2023/04/17 04:53:23;;;;;;;13.80;12.40;;;;;;;;;;5039151;28;20207;-72
2023/04/17 04:55:50;;;;;;;14.30;12.80;;;;;;;;;;5042486;28;20224;-72
2023/04/17 04:58:17;;;;;;;14.67;13.17;;;;;;;;;;5045928;28;20204;-72
2023/04/17 05:00:44;;;;;;;16.07;13.23;;;;;;;;;;5044890;28;20199;-72
2023/04/17 05:03:12;;;;;;;14.13;12.73;;;;;;;;;;5045720;28;20203;-72
2023/04/17 05:05:40;;;;;;;16.37;14.57;;;;;;;;;;5045206;28;20204;-73
2023/04/17 05:08:09;;;;;;;14.97;13.47;;;;;;;;;;5045805;28;20218;-72
2023/04/17 05:10:36;;;;;;;16.00;12.80;;;;;;;;;;5045816;28;20200;-72
2023/04/17 05:13:03;;;;;;;15.50;13.90;;;;;;;;;;5044239;28;20235;-72
2023/04/17 05:15:30;;;;;;;15.47;13.67;;;;;;;;;;5043570;28;20219;-72
2023/04/17 05:17:57;;;;;;;16.27;14.50;;;;;;;;;;5046722;28;20207;-72
2023/04/17 05:20:25;;;;;;;15.17;13.33;;;;;;;;;;5046360;28;20202;-72
2023/04/17 05:22:52;;;;;;;20.27;18.03;;;;;;;;;;5046853;28;20214;-72
2023/04/17 05:25:21;;;;;;;17.70;15.90;;;;;;;;;;5041797;28;20195;-73
2023/04/17 05:27:48;;;;;;;17.10;15.30;;;;;;;;;;5032676;28;20212;-72
2023/04/17 05:30:16;;;;;;;17.43;15.57;;;;;;;;;;5042294;28;20204;-72
2023/04/17 05:32:43;;;;;;;16.33;14.63;;;;;;;;;;5042909;28;20199;-72
2023/04/17 05:35:10;;;;;;;16.03;14.33;;;;;;;;;;5040209;28;20220;-72
2023/04/17 05:37:37;;;;;;;15.63;13.50;;;;;;;;;;5047080;28;20265;-72
2023/04/17 05:40:05;;;;;;;17.27;15.37;;;;;;;;;;5045627;28;20207;-72
2023/04/17 05:42:34;;;;;;;20.03;17.10;;;;;;;;;;5044350;28;20200;-72
2023/04/17 05:45:01;;;;;;;15.87;14.03;;;;;;;;;;5048437;28;20239;-72
2023/04/17 05:47:28;;;;;;;18.00;15.43;;;;;;;;;;5043902;28;20203;-72
2023/04/17 05:49:56;;;;;;;18.30;16.17;;;;;;;;;;5039107;28;20216;-72
2023/04/17 05:52:24;;;;;;;18.23;15.73;;;;;;;;;;5045127;28;20205;-72
2023/04/17 05:54:51;;;;;;;18.23;16.27;;;;;;;;;;5044020;28;20223;-72
2023/04/17 05:57:18;;;;;;;17.63;15.40;;;;;;;;;;5037909;28;20207;-72
2023/04/17 05:59:47;;;;;;;17.50;15.37;;;;;;;;;;5043912;28;20203;-72
2023/04/17 06:02:15;;;;;;;19.93;17.17;;;;;;;;;;5038847;28;20253;-72
2023/04/17 06:04:42;;;;;;;17.63;15.73;;;;;;;;;;5039844;28;20228;-72
2023/04/17 06:07:10;;;;;;;17.30;15.37;;;;;;;;;;5040015;28;20298;-72
2023/04/17 06:09:39;;;;;;;17.67;15.87;;;;;;;;;;5047835;28;20235;-72
2023/04/17 06:12:13;;;;;;;19.07;16.33;;;;;;;;;;5040118;28;20253;-72
2023/04/17 06:14:40;;;;;;;17.60;15.40;;;;;;;;;;5038176;28;20228;-72
2023/04/17 06:17:09;;;;;;;18.37;15.80;;;;;;;;;;5041833;28;20280;-72
2023/04/17 06:19:36;;;;;;;18.93;16.83;;;;;;;;;;5042965;28;20218;-72
2023/04/17 06:22:04;;;;;;;21.93;18.23;;;;;;;;;;5041867;28;20215;-72
2023/04/17 06:24:31;;;;;;;20.63;18.43;;;;;;;;;;5041144;28;20191;-72
2023/04/17 06:26:58;;;;;;;21.77;18.40;;;;;;;;;;5042047;28;20215;-72
2023/04/17 06:29:25;;;;;;;21.60;17.73;;;;;;;;;;5045155;28;20212;-72
2023/04/17 06:31:52;;;;;;;21.87;17.57;;;;;;;;;;5040054;28;20213;-72
2023/04/17 06:34:21;;;;;;;22.00;18.70;;;;;;;;;;5041288;28;20335;-72
2023/04/17 06:36:48;;;;;;;20.20;17.27;;;;;;;;;;5042407;28;20230;-72
2023/04/17 06:39:15;;;;;;;20.47;17.67;;;;;;;;;;5039874;28;20214;-72
2023/04/17 06:41:42;;;;;;;20.37;17.17;;;;;;;;;;5047007;28;20294;-72
2023/04/17 06:44:10;;;;;;;21.20;17.77;;;;;;;;;;5037587;28;20255;-71
2023/04/17 06:46:37;;;;;;;19.23;16.80;;;;;;;;;;5041358;28;20202;-72
2023/04/17 06:49:04;;;;;;;22.87;19.30;;;;;;;;;;5042013;28;20216;-72
2023/04/17 06:51:32;;;;;;;19.10;16.77;;;;;;;;;;5044367;28;20212;-72
2023/04/17 06:54:00;;;;;;;21.37;17.97;;;;;;;;;;5038417;28;20208;-72
2023/04/17 06:56:27;;;;;;;19.70;16.43;;;;;;;;;;5041603;28;20212;-72
2023/04/17 06:58:56;;;;;;;19.10;16.50;;;;;;;;;;5042544;28;20204;-72
2023/04/17 07:01:23;;;;;;;17.03;15.27;;;;;;;;;;5041805;28;20363;-72
2023/04/17 07:03:51;;;;;;;20.33;17.07;;;;;;;;;;5048306;28;20210;-72
2023/04/17 07:06:18;;;;;;;17.97;15.90;;;;;;;;;;5044035;28;20203;-72
2023/04/17 07:08:46;;;;;;;19.23;16.13;;;;;;;;;;5044467;28;20199;-72
2023/04/17 07:11:13;;;;;;;22.13;17.10;;;;;;;;;;5046202;28;20208;-72
2023/04/17 07:13:41;;;;;;;16.80;14.40;;;;;;;;;;5045974;28;20231;-72
2023/04/17 07:16:08;;;;;;;17.33;15.17;;;;;;;;;;5045072;28;20219;-72
2023/04/17 07:18:37;;;;;;;16.33;14.63;;;;;;;;;;5046196;28;20218;-72
2023/04/17 07:21:05;;;;;;;14.87;13.23;;;;;;;;;;5047944;28;20231;-72
2023/04/17 07:23:32;;;;;;;17.17;14.70;;;;;;;;;;5045218;28;20250;-72
2023/04/17 07:26:00;;;;;;;18.43;15.63;;;;;;;;;;5047889;28;20211;-72
2023/04/17 07:28:28;;;;;;;18.93;15.43;;;;;;;;;;5047846;28;20235;-72
2023/04/17 07:30:56;;;;;;;16.70;14.83;;;;;;;;;;5045269;28;20219;-72
2023/04/17 07:33:24;;;;;;;15.80;13.57;;;;;;;;;;5042891;28;20200;-71
2023/04/17 07:35:52;;;;;;;15.83;14.00;;;;;;;;;;5042627;28;20230;-72
2023/04/17 07:38:19;;;;;;;15.23;13.53;;;;;;;;;;5043129;28;20329;-71
2023/04/17 07:40:46;;;;;;;17.30;14.97;;;;;;;;;;5041998;28;20200;-72
2023/04/17 07:43:15;;;;;;;19.90;15.03;;;;;;;;;;5043280;28;20234;-72
2023/04/17 07:45:42;;;;;;;14.20;12.70;;;;;;;;;;5043300;28;20234;-72
2023/04/17 07:48:10;;;;;;;15.40;13.80;;;;;;;;;;5043938;28;20211;-72
2023/04/17 07:50:37;;;;;;;14.73;13.10;;;;;;;;;;5042973;28;20211;-72
2023/04/17 07:53:04;;;;;;;17.43;14.30;;;;;;;;;;5041064;28;20204;-72
2023/04/17 07:55:31;;;;;;;14.53;12.97;;;;;;;;;;5048677;28;20253;-72
2023/04/17 07:58:02;;;;;;;15.90;13.43;;;;;;;;;;5048075;28;20215;-72
2023/04/17 08:00:31;;;;;;;16.80;15.00;;;;;;;;;;5041481;28;20215;-73
2023/04/17 08:02:58;;;;;;;15.23;12.63;;;;;;;;;;5044218;28;20303;-71
2023/04/17 08:05:25;;;;;;;15.60;14.00;;;;;;;;;;5043222;28;20298;-72
2023/04/17 08:07:52;;;;;;;15.93;13.73;;;;;;;;;;5045323;28;20200;-71
2023/04/17 08:10:19;;;;;;;16.83;13.87;;;;;;;;;;5039157;28;20219;-71
2023/04/17 08:12:47;;;;;;;16.40;14.53;;;;;;;;;;5040829;28;20207;-72
2023/04/17 08:15:14;;;;;;;16.53;14.23;;;;;;;;;;5040979;28;20230;-71
2023/04/17 08:17:42;;;;;;;16.23;13.93;;;;;;;;;;5036317;28;20208;-72
2023/04/17 08:20:10;;;;;;;15.23;13.63;;;;;;;;;;5032428;28;20208;-72
2023/04/17 08:22:39;;;;;;;15.63;13.90;;;;;;;;;;5037448;28;20244;-73
2023/04/17 08:25:08;;;;;;;17.33;14.70;;;;;;;;;;5043272;28;20260;-71
2023/04/17 08:27:35;;;;;;;16.77;14.97;;;;;;;;;;5043181;28;20232;-71
2023/04/17 08:30:03;;;;;;;17.37;15.07;;;;;;;;;;5036014;28;20231;-71
2023/04/17 08:32:30;;;;;;;18.67;15.13;;;;;;;;;;5044954;28;20211;-71
2023/04/17 08:34:59;;;;;;;15.27;13.67;;;;;;;;;;5043016;28;20203;-71
2023/04/17 08:37:27;;;;;;;16.23;13.90;;;;;;;;;;5038052;28;20199;-71
2023/04/17 08:39:54;;;;;;;15.87;13.80;;;;;;;;;;5044872;28;20223;-71
2023/04/17 08:42:22;;;;;;;15.57;13.33;;;;;;;;;;5036680;28;20208;-71
2023/04/17 08:44:49;;;;;;;13.23;11.93;;;;;;;;;;5046128;28;20250;-71
2023/04/17 08:47:18;;;;;;;14.87;12.83;;;;;;;;;;5042783;28;20211;-71
2023/04/17 08:49:46;;;;;;;14.30;12.70;;;;;;;;;;5040672;28;20204;-72
2023/04/17 08:52:15;;;;;;;14.77;13.00;;;;;;;;;;5040044;28;20235;-71
2023/04/17 08:54:42;;;;;;;13.53;12.00;;;;;;;;;;5043301;28;20227;-71
2023/04/17 08:57:09;;;;;;;15.73;12.73;;;;;;;;;;5041272;28;20223;-71
2023/04/17 08:59:36;;;;;;;14.77;12.20;;;;;;;;;;5042298;28;20253;-71
2023/04/17 09:02:04;;;;;;;12.80;10.77;;;;;;;;;;5040164;28;20209;-71
2023/04/17 09:04:41;;;;;;;12.27;10.97;;;;;;;;;;5043751;28;20213;-71
2023/04/17 09:07:09;;;;;;;13.43;11.60;;;;;;;;;;5036228;28;20199;-71
2023/04/17 09:09:51;;;;;;;12.63;11.37;;;;;;;;;;5038404;28;20203;-71
2023/04/17 09:12:20;;;;;;;12.50;10.90;;;;;;;;;;5035397;28;20217;-72
2023/04/17 09:14:47;;;;;;;13.37;11.97;;;;;;;;;;5032167;28;20207;-71
2023/04/17 09:17:16;;;;;;;12.87;11.47;;;;;;;;;;5034018;28;20227;-71
2023/04/17 09:19:58;;;;;;;12.27;11.07;;;;;;;;;;5034714;28;20201;-71
2023/04/17 09:22:25;;;;;;;14.00;12.60;;;;;;;;;;5037909;28;20206;-71
2023/04/17 09:24:52;;;;;;;12.93;11.53;;;;;;;;;;5041735;28;20207;-71
2023/04/17 09:27:24;;;;;;;10.73;9.67;;;;;;;;;;5038849;28;20227;-71
2023/04/17 09:29:58;;;;;;;12.37;11.10;;;;;;;;;;5041039;28;20212;-71
2023/04/17 09:32:25;;;;;;;11.10;10.00;;;;;;;;;;5021170;28;20294;-71
2023/04/17 09:34:53;;;;;;;11.37;10.27;;;;;;;;;;5038211;28;20211;-71
2023/04/17 09:37:20;;;;;;;12.37;10.57;;;;;;;;;;5041634;28;20235;-71
2023/04/17 09:39:57;;;;;;;11.70;10.53;;;;;;;;;;5040124;28;20208;-71
2023/04/17 09:42:26;;;;;;;12.23;11.03;;;;;;;;;;5038637;28;20204;-71
2023/04/17 09:44:53;;;;;;;11.60;10.50;;;;;;;;;;5041737;28;20333;-71
2023/04/17 09:47:20;;;;;;;12.10;10.90;;;;;;;;;;5043059;28;20276;-71
2023/04/17 09:49:51;;;;;;;12.52;11.23;;;;;;;;;;5041063;28;20195;-70
2023/04/17 09:52:19;;;;;;;12.90;11.60;;;;;;;;;;5044953;28;20204;-71
2023/04/17 09:54:48;;;;;;;13.43;12.03;;;;;;;;;;5041282;28;20199;-71
2023/04/17 09:57:15;;;;;;;13.50;12.20;;;;;;;;;;5037468;28;20223;-70
2023/04/17 09:59:44;;;;;;;15.03;13.30;;;;;;;;;;5040072;28;20204;-70
2023/04/17 10:02:14;;;;;;;15.87;14.27;;;;;;;;;;5039334;28;20227;-71
2023/04/17 10:04:42;;;;;;;14.75;13.35;;;;;;;;;;5040776;28;20231;-70
2023/04/17 10:07:09;;;;;;;15.13;13.53;;;;;;;;;;5037419;28;20204;-70
2023/04/17 10:09:38;;;;;;;15.37;13.73;;;;;;;;;;5035436;28;20291;-71
2023/04/17 10:12:06;;;;;;;16.38;14.77;;;;;;;;;;5039783;28;20200;-72
2023/04/17 10:14:36;;;;;;;15.95;14.45;;;;;;;;;;5039907;28;20206;-71
2023/04/17 10:17:18;;;;;;;16.03;14.43;;;;;;;;;;5039646;28;20231;-71
2023/04/17 10:19:47;;;;;;;14.68;13.25;;;;;;;;;;5040446;28;20200;-70
2023/04/17 10:22:29;;;;;;;14.77;13.38;;;;;;;;;;5039465;28;20203;-70
2023/04/17 10:25:16;;;;;;;15.27;13.77;;;;;;;;;;5042870;28;20207;-71
2023/04/17 10:27:44;;;;;;;15.20;13.70;;;;;;;;;;5044448;28;20245;-70
2023/04/17 10:30:11;;;;;;;14.07;12.70;;;;;;;;;;5036013;28;20211;-70
2023/04/17 10:32:39;;;;;;;15.20;13.70;;;;;;;;;;5042322;28;20208;-70
2023/04/17 10:35:21;;;;;;;14.23;12.85;;;;;;;;;;5041624;28;20207;-71
2023/04/17 10:38:06;;;;;;;15.07;12.75;;;;;;;;;;5043938;28;20218;-70
2023/04/17 10:40:34;;;;;;;14.55;13.05;;;;;;;;;;5046737;28;20299;-71
2023/04/17 10:43:05;;;;;;;14.13;12.73;;;;;;;;;;5042254;28;20212;-71
2023/04/17 10:45:51;;;;;;;13.38;12.15;;;;;;;;;;5047155;28;20237;-70
2023/04/17 10:48:22;;;;;;;13.43;12.23;;;;;;;;;;5046550;28;20200;-70
2023/04/17 10:50:49;;;;;;;14.45;12.95;;;;;;;;;;5046199;28;20200;-70
2023/04/17 10:53:35;;;;;;;13.88;12.52;;;;;;;;;;5042697;28;20199;-70
2023/04/17 10:56:04;;;;;;;15.00;13.55;;;;;;;;;;5045709;28;20236;-71
2023/04/17 10:58:31;;;;;;;13.13;11.82;;;;;;;;;;5045896;28;20203;-70
2023/04/17 11:01:02;;;;;;;13.98;12.68;;;;;;;;;;5036448;28;20204;-70
2023/04/17 11:03:30;;;;;;;13.52;12.23;;;;;;;;;;5028492;28;20232;-70
2023/04/17 11:05:59;;;;;;;13.23;12.05;;;;;;;;;;5045040;28;20249;-70
2023/04/17 11:08:26;;;;;;;13.60;12.30;;;;;;;;;;5045901;28;20203;-72
2023/04/17 11:10:54;;;;;;;14.52;13.13;;;;;;;;;;5040837;28;20207;-70
2023/04/17 11:13:22;;;;;;;13.18;12.00;;;;;;;;;;5044878;28;20289;-71
2023/04/17 11:15:50;;;;;;;13.73;12.43;;;;;;;;;;5044285;28;20200;-71
2023/04/17 11:18:18;;;;;;;15.05;13.65;;;;;;;;;;5045025;28;20200;-71
2023/04/17 11:20:45;;;;;;;12.45;11.25;;;;;;;;;;5044549;28;20205;-71
2023/04/17 11:23:14;;;;;;;13.30;12.00;;;;;;;;;;5043901;28;20249;-71
2023/04/17 11:25:41;;;;;;;12.00;10.80;;;;;;;;;;5042459;28;20196;-71
2023/04/17 11:28:09;;;;;;;12.63;11.43;;;;;;;;;;5046855;28;20192;-70
2023/04/17 11:30:39;;;;;;;12.50;11.30;;;;;;;;;;5044859;28;20206;-70
2023/04/17 11:33:08;;;;;;;13.13;11.90;;;;;;;;;;5043481;28;20226;-70
2023/04/17 11:35:36;;;;;;;10.80;9.80;;;;;;;;;;5042606;28;20210;-71
2023/04/17 11:38:19;;;;;;;11.65;10.48;;;;;;;;;;5042491;28;20228;-71
2023/04/17 11:40:48;;;;;;;11.10;10.00;;;;;;;;;;5037821;28;20233;-71
2023/04/17 11:43:15;;;;;;;11.48;10.38;;;;;;;;;;5043665;28;20207;-71
2023/04/17 11:45:45;;;;;;;10.75;9.85;;;;;;;;;;5043068;28;20239;-70
2023/04/17 11:48:12;;;;;;;10.60;9.70;;;;;;;;;;5042991;28;20211;-71
2023/04/17 11:50:41;;;;;;;11.00;9.90;;;;;;;;;;5048095;28;20207;-70
2023/04/17 11:53:11;;;;;;;12.30;11.10;;;;;;;;;;5042478;28;20202;-70
2023/04/17 11:55:39;;;;;;;11.70;10.70;;;;;;;;;;5042569;28;20234;-70
2023/04/17 11:58:08;;;;;;;10.93;10.02;;;;;;;;;;5044856;28;20228;-70
2023/04/17 12:00:39;;;;;;;11.23;10.13;;;;;;;;;;5038907;28;20211;-72
2023/04/17 12:03:21;;;;;;;10.40;9.50;;;;;;;;;;5044330;28;20200;-70
2023/04/17 12:06:00;;;;;;;11.30;10.20;;;;;;;;;;5040936;28;20204;-70
2023/04/17 12:08:27;;;;;;;10.93;9.88;;;;;;;;;;5048034;28;20192;-70
2023/04/17 12:10:54;;;;;;;10.55;9.55;;;;;;;;;;5043204;28;20200;-71
2023/04/17 12:13:21;;;;;;;10.13;9.13;;;;;;;;;;5042093;28;20212;-71
2023/04/17 12:15:48;;;;;;;10.65;9.65;;;;;;;;;;5040721;28;20207;-70
2023/04/17 12:18:15;;;;;;;9.77;8.88;;;;;;;;;;5040811;28;20219;-70
2023/04/17 12:20:42;;;;;;;9.68;8.77;;;;;;;;;;5041412;28;20286;-69
2023/04/17 12:23:11;;;;;;;9.70;8.90;;;;;;;;;;5047191;28;20207;-69
2023/04/17 12:25:38;;;;;;;10.13;9.13;;;;;;;;;;5043285;28;20203;-69
2023/04/17 12:28:05;;;;;;;9.57;8.68;;;;;;;;;;5040609;28;20210;-70
2023/04/17 12:30:34;;;;;;;9.57;8.68;;;;;;;;;;5037173;28;20214;-70
2023/04/17 12:33:02;;;;;;;9.85;8.82;;;;;;;;;;5042089;28;20235;-70
2023/04/17 12:35:29;;;;;;;9.77;8.88;;;;;;;;;;5041042;28;20286;-70
2023/04/17 12:37:56;;;;;;;9.18;8.35;;;;;;;;;;5040266;28;20220;-70
2023/04/17 12:40:27;;;;;;;8.75;8.05;;;;;;;;;;5045375;28;20204;-70
2023/04/17 12:42:54;;;;;;;7.47;6.82;;;;;;;;;;5044016;28;20204;-70
2023/04/17 12:45:21;;;;;;;7.28;6.60;;;;;;;;;;5043437;28;20235;-70
2023/04/17 12:47:49;;;;;;;7.75;6.95;;;;;;;;;;5045097;28;20212;-73
2023/04/17 12:50:16;;;;;;;6.15;5.65;;;;;;;;;;5034316;28;20211;-73
2023/04/17 12:52:43;;;;;;;6.25;5.70;;;;;;;;;;5042257;28;20231;-73
2023/04/17 12:55:11;;;;;;;6.20;5.70;;;;;;;;;;5039368;28;20207;-71
2023/04/17 12:57:39;;;;;;;6.13;5.63;;;;;;;;;;5043577;28;20231;-71
2023/04/17 13:00:07;;;;;;;5.72;5.32;;;;;;;;;;5038582;28;20219;-71
2023/04/17 13:02:35;;;;;;;5.75;5.20;;;;;;;;;;5040629;28;20208;-71
2023/04/17 13:05:02;;;;;;;5.85;5.35;;;;;;;;;;5042616;28;20236;-71
2023/04/17 13:07:30;;;;;;;6.32;5.82;;;;;;;;;;5039127;28;20208;-71
2023/04/17 13:09:57;;;;;;;6.03;5.53;;;;;;;;;;5038144;28;20203;-71
2023/04/17 13:12:24;;;;;;;6.90;6.30;;;;;;;;;;5040251;28;20212;-71
2023/04/17 13:14:56;;;;;;;6.13;5.63;;;;;;;;;;5035361;28;20206;-71
2023/04/17 13:17:23;;;;;;;6.20;5.57;;;;;;;;;;5037106;28;20223;-71
2023/04/17 13:19:50;;;;;;;6.68;6.07;;;;;;;;;;5041621;28;20208;-71
2023/04/17 13:22:19;;;;;;;6.03;5.47;;;;;;;;;;5044105;28;20390;-71
2023/04/17 13:24:46;;;;;;;6.80;6.20;;;;;;;;;;5039009;28;20231;-71
2023/04/17 13:27:13;;;;;;;7.15;5.97;;;;;;;;;;5042523;28;20239;-71
2023/04/17 13:29:41;;;;;;;6.15;5.55;;;;;;;;;;5041119;28;20206;-71
2023/04/17 13:32:09;;;;;;;7.07;6.47;;;;;;;;;;5033776;28;20199;-69
2023/04/17 13:34:37;;;;;;;7.07;6.38;;;;;;;;;;5041521;28;20223;-71
2023/04/17 13:37:04;;;;;;;6.82;6.22;;;;;;;;;;5044019;28;20231;-71
2023/04/17 13:39:31;;;;;;;7.50;6.90;;;;;;;;;;5035490;28;20225;-71
2023/04/17 13:41:58;;;;;;;7.28;6.68;;;;;;;;;;5041508;28;20207;-71
2023/04/17 13:44:27;;;;;;;10.48;7.10;;;;;;;;;;5038667;28;20239;-71
2023/04/17 13:46:54;;;;;;;7.30;6.50;;;;;;;;;;5035221;28;20214;-72
2023/04/17 13:49:22;;;;;;;7.72;6.95;;;;;;;;;;5042347;28;20213;-72
2023/04/17 13:51:49;;;;;;;6.93;6.32;;;;;;;;;;5042872;28;20204;-72
2023/04/17 13:54:17;;;;;;;6.93;6.25;;;;;;;;;;5036260;28;20199;-71
2023/04/17 13:56:45;;;;;;;7.22;6.50;;;;;;;;;;5041559;28;20211;-70
2023/04/17 13:59:12;;;;;;;7.43;6.72;;;;;;;;;;5041068;28;20235;-70
2023/04/17 14:01:39;;;;;;;7.65;6.90;;;;;;;;;;5038721;28;20204;-70
2023/04/17 14:04:07;;;;;;;8.00;7.20;;;;;;;;;;5042360;28;20200;-70
2023/04/17 14:06:35;;;;;;;6.97;6.38;;;;;;;;;;5040412;28;20211;-71
2023/04/17 14:09:02;;;;;;;7.00;6.40;;;;;;;;;;5040483;28;20203;-70
2023/04/17 14:11:29;;;;;;;6.80;6.20;;;;;;;;;;5038517;28;20210;-71
2023/04/17 14:13:57;;;;;;;6.95;6.35;;;;;;;;;;5039456;28;20200;-71
2023/04/17 14:16:24;;;;;;;6.40;5.80;;;;;;;;;;5045355;28;20205;-70
2023/04/17 14:18:51;;;;;;;6.75;6.15;;;;;;;;;;5044083;28;20224;-70
2023/04/17 14:21:20;;;;;;;6.47;5.72;;;;;;;;;;5047988;28;20204;-71
2023/04/17 14:23:50;;;;;;;6.88;6.18;;;;;;;;;;5047554;28;20226;-71
2023/04/17 14:26:17;;;;;;;8.23;7.00;;;;;;;;;;5045075;28;20215;-71